Time;durP1;ratioP1;P1;durP2;ratioP2;P2;SDS_P1;SDS_P2;PMS_P1;PMS_P2;Temp;Humidity;BMP_temperature;BMP_pressure;BME280_temperature;BME280_humidity;BME280_pressure;Samples;Min_cycle;Max_cycle;Signal;HPM_P1;HPM_P2
2021/12/26 00:04:13;;;;;;;26.55;12.68;;;;;;;4.55;100.00;94342.88;10472476;28;20035;-76
2021/12/26 00:09:14;;;;;;;24.33;11.32;;;;;;;4.40;100.00;94363.94;10471999;28;20438;-75
2021/12/26 00:14:14;;;;;;;22.77;11.57;;;;;;;4.31;100.00;94354.75;10471508;28;20036;-72
2021/12/26 00:19:15;;;;;;;18.10;9.30;;;;;;;4.38;100.00;94350.88;10446918;28;20179;-69
2021/12/26 00:24:15;;;;;;;25.83;11.88;;;;;;;4.45;100.00;94340.88;10447195;28;20021;-79
2021/12/26 00:29:16;;;;;;;21.27;11.23;;;;;;;4.11;100.00;94353.38;10432776;28;20041;-71
2021/12/26 00:34:16;;;;;;;23.77;9.50;;;;;;;4.23;100.00;94343.47;10470562;28;20032;-71
2021/12/26 00:39:17;;;;;;;19.80;11.68;;;;;;;4.26;100.00;94337.66;10469137;28;20036;-72
2021/12/26 00:44:17;;;;;;;25.52;11.60;;;;;;;4.26;100.00;94340.31;10453813;28;20032;-75
2021/12/26 00:49:18;;;;;;;17.80;9.98;;;;;;;4.10;100.00;94339.28;10487574;28;20453;-74
2021/12/26 00:54:20;;;;;;;21.55;12.25;;;;;;;4.15;100.00;94362.50;10443950;28;20033;-71
2021/12/26 00:59:20;;;;;;;22.63;12.00;;;;;;;4.15;100.00;94351.84;10428165;28;20025;-76
2021/12/26 01:04:23;;;;;;;23.70;11.05;;;;;;;4.11;100.00;94356.06;10446805;28;20517;-71
2021/12/26 01:09:27;;;;;;;26.75;13.65;;;;;;;4.05;100.00;94333.09;10427583;28;20058;-75
2021/12/26 01:14:31;;;;;;;27.95;12.80;;;;;;;3.94;100.00;94345.41;10428805;28;20520;-77
2021/12/26 01:19:41;;;;;;;27.33;12.63;;;;;;;3.75;100.00;94343.00;10456620;28;20028;-71
2021/12/26 01:24:44;;;;;;;25.60;12.55;;;;;;;3.51;100.00;94333.53;10446985;28;20807;-67
2021/12/26 01:29:45;;;;;;;26.55;13.95;;;;;;;3.46;100.00;94349.34;10449468;28;20033;-74
2021/12/26 01:34:47;;;;;;;27.70;13.07;;;;;;;3.36;100.00;94334.88;10470135;28;20421;-72
2021/12/26 01:39:47;;;;;;;23.17;11.60;;;;;;;3.38;100.00;94332.75;10446103;28;20506;-72
2021/12/26 01:44:49;;;;;;;24.55;12.40;;;;;;;3.48;100.00;94329.47;10449138;28;20167;-72
2021/12/26 01:49:49;;;;;;;28.02;13.68;;;;;;;3.47;100.00;94319.09;10451618;28;20155;-72
2021/12/26 01:55:00;;;;;;;20.33;11.13;;;;;;;3.54;100.00;94322.41;10451019;28;20028;-68
2021/12/26 02:00:01;;;;;;;20.40;12.85;;;;;;;3.55;100.00;94322.16;10450024;28;20530;-77
2021/12/26 02:05:02;;;;;;;26.25;11.75;;;;;;;3.55;100.00;94306.22;10456216;28;20418;-71
2021/12/26 02:10:04;;;;;;;23.55;12.20;;;;;;;3.42;100.00;94304.69;10486256;28;20056;-74
2021/12/26 02:15:05;;;;;;;28.17;12.75;;;;;;;3.51;100.00;94301.63;10427518;28;20202;-74
2021/12/26 02:30:57;;;;;;;29.30;12.95;;;;;;;3.34;100.00;94302.41;10429783;28;20060;-74
2021/12/26 02:35:57;;;;;;;22.48;10.93;;;;;;;3.30;100.00;94314.56;10427000;28;20478;-81
2021/12/26 02:40:59;;;;;;;26.27;12.13;;;;;;;3.30;100.00;94314.56;10443120;28;20036;-75
2021/12/26 02:46:05;;;;;;;24.80;11.45;;;;;;;3.32;100.00;94324.94;10425148;28;20128;-76
2021/12/26 02:51:06;;;;;;;24.08;11.50;;;;;;;3.45;100.00;94299.91;10435782;28;20090;-72
2021/12/26 02:56:07;;;;;;;19.40;10.73;;;;;;;3.55;100.00;94303.56;10441765;28;20119;-74
2021/12/26 03:01:09;;;;;;;20.80;9.65;;;;;;;3.64;100.00;94297.88;10424948;28;20115;-77
2021/12/26 03:06:22;;;;;;;20.40;10.52;;;;;;;3.72;100.00;94295.59;10425240;28;20360;-73
2021/12/26 03:11:23;;;;;;;21.63;10.35;;;;;;;3.67;100.00;94298.19;10442762;28;20186;-73
2021/12/26 03:16:24;;;;;;;27.67;10.35;;;;;;;3.76;100.00;94290.63;10443735;28;20510;-72
2021/12/26 03:21:24;;;;;;;21.17;9.27;;;;;;;3.76;100.00;94287.97;10447141;28;20053;-74
2021/12/26 03:26:25;;;;;;;15.20;8.13;;;;;;;3.98;100.00;94288.06;10425302;28;20032;-69
2021/12/26 03:31:25;;;;;;;13.10;7.18;;;;;;;3.97;100.00;94275.78;10440219;28;20094;-74
2021/12/26 03:36:26;;;;;;;19.42;8.25;;;;;;;4.01;100.00;94303.50;10426268;28;20078;-75
2021/12/26 03:41:26;;;;;;;23.75;7.80;;;;;;;4.11;100.00;94310.84;10424533;28;20025;-75
2021/12/26 03:46:27;;;;;;;14.35;6.85;;;;;;;4.23;100.00;94300.13;10440549;28;20037;-69
2021/12/26 03:51:28;;;;;;;13.73;6.25;;;;;;;4.33;100.00;94278.97;10424101;28;20486;-75
2021/12/26 03:56:31;;;;;;;10.80;6.07;;;;;;;4.42;100.00;94312.09;10442882;28;20105;-74
2021/12/26 04:01:32;;;;;;;13.30;7.07;;;;;;;4.65;100.00;94285.50;10423414;28;20068;-74
2021/12/26 04:06:32;;;;;;;15.20;6.20;;;;;;;4.76;100.00;94298.69;10423607;28;20048;-75
2021/12/26 04:11:35;;;;;;;14.35;6.10;;;;;;;4.82;100.00;94301.44;10446313;28;20060;-71
2021/12/26 04:16:36;;;;;;;12.30;6.72;;;;;;;4.88;100.00;94295.09;10430793;28;20036;-76
2021/12/26 04:21:36;;;;;;;12.05;6.55;;;;;;;4.96;100.00;94305.31;10430835;28;20028;-76
2021/12/26 04:26:37;;;;;;;13.90;6.65;;;;;;;5.04;100.00;94304.09;10413638;28;20044;-77
2021/12/26 04:31:37;;;;;;;13.13;6.32;;;;;;;5.03;100.00;94308.59;10447990;28;20041;-73
2021/12/26 04:36:38;;;;;;;14.40;6.57;;;;;;;5.17;100.00;94322.34;10432449;28;20024;-77
2021/12/26 04:41:38;;;;;;;14.23;6.40;;;;;;;5.12;100.00;94285.81;10414436;28;20036;-77
2021/12/26 04:46:39;;;;;;;10.13;5.43;;;;;;;4.96;100.00;94306.13;10437205;28;20133;-74
2021/12/26 04:51:40;;;;;;;13.18;6.63;;;;;;;4.92;100.00;94320.19;10471281;28;20028;-73
2021/12/26 04:56:40;;;;;;;12.95;6.55;;;;;;;5.01;100.00;94329.38;10457887;28;20084;-76
2021/12/26 05:01:41;;;;;;;17.30;7.25;;;;;;;5.09;100.00;94317.44;10445696;28;20032;-75
2021/12/26 05:06:42;;;;;;;11.63;7.00;;;;;;;4.91;100.00;94308.75;10467375;28;20031;-72
2021/12/26 05:11:43;;;;;;;14.57;7.53;;;;;;;4.77;100.00;94342.09;10442851;28;20110;-73
2021/12/26 05:16:43;;;;;;;15.70;7.57;;;;;;;4.95;100.00;94325.84;10485786;28;20548;-75
2021/12/26 05:21:44;;;;;;;15.43;7.15;;;;;;;4.90;100.00;94325.75;10461936;28;20020;-73
2021/12/26 05:26:44;;;;;;;13.55;7.88;;;;;;;4.64;100.00;94339.81;10448541;28;20483;-75
2021/12/26 05:31:45;;;;;;;15.40;8.38;;;;;;;4.74;100.00;94354.03;10427908;28;20037;-73
2021/12/26 05:36:46;;;;;;;22.90;10.98;;;;;;;4.78;100.00;94347.16;10427758;28;20029;-74
2021/12/26 05:41:46;;;;;;;22.65;10.73;;;;;;;4.70;100.00;94350.28;10478694;28;20035;-79
2021/12/26 05:46:47;;;;;;;17.90;10.38;;;;;;;4.66;100.00;94351.00;10468588;28;20043;-71
2021/12/26 05:51:47;;;;;;;20.33;9.82;;;;;;;4.69;100.00;94350.50;10467853;28;20032;-73
2021/12/26 05:56:48;;;;;;;19.85;10.02;;;;;;;4.70;100.00;94346.78;10457656;28;20025;-75
2021/12/26 06:01:48;;;;;;;23.33;11.10;;;;;;;4.78;100.00;94330.41;10445155;28;20421;-74
2021/12/26 06:06:49;;;;;;;20.45;10.88;;;;;;;4.54;100.00;94349.25;10457125;28;20413;-72
2021/12/26 06:11:50;;;;;;;19.63;11.65;;;;;;;4.43;100.00;94307.59;10468246;28;20028;-77
2021/12/26 06:16:51;;;;;;;23.52;11.00;;;;;;;4.27;100.00;94315.34;10474928;28;20082;-72
2021/12/26 06:21:51;;;;;;;26.25;13.30;;;;;;;4.19;100.00;94283.84;10478338;28;20855;-73
2021/12/26 06:26:52;;;;;;;29.08;15.60;;;;;;;4.16;100.00;94294.16;10488859;28;20023;-77
2021/12/26 06:31:52;;;;;;;27.90;15.25;;;;;;;3.96;100.00;94289.34;10455894;28;20036;-79
2021/12/26 06:36:53;;;;;;;23.33;11.98;;;;;;;3.84;100.00;94324.00;10467665;28;20024;-75
2021/12/26 06:41:53;;;;;;;20.98;11.82;;;;;;;3.83;100.00;94282.50;10445369;28;20201;-73
2021/12/26 06:46:54;;;;;;;19.90;10.38;;;;;;;3.93;100.00;94264.84;10442899;28;20033;-74
2021/12/26 06:51:54;;;;;;;18.83;9.75;;;;;;;3.90;100.00;94285.78;10452329;28;20028;-75
2021/12/26 06:56:55;;;;;;;18.83;9.90;;;;;;;3.78;100.00;94291.19;10467329;28;20413;-71
2021/12/26 07:01:55;;;;;;;16.77;9.45;;;;;;;3.83;100.00;94303.75;10465054;28;20032;-72
2021/12/26 07:06:56;;;;;;;18.05;8.98;;;;;;;3.98;100.00;94345.72;10465847;28;20021;-77
2021/12/26 07:11:56;;;;;;;22.70;9.13;;;;;;;4.07;100.00;94352.25;10462792;28;20086;-73
2021/12/26 07:16:57;;;;;;;20.25;9.40;;;;;;;4.02;100.00;94347.69;10460399;28;20119;-73
2021/12/26 07:21:57;;;;;;;16.45;8.65;;;;;;;4.11;100.00;94351.53;10458929;28;20037;-77
2021/12/26 07:26:58;;;;;;;21.08;9.25;;;;;;;3.98;100.00;94356.34;10440771;28;20025;-77
2021/12/26 07:31:58;;;;;;;22.02;9.93;;;;;;;4.14;100.00;94350.25;10448567;28;20036;-74
2021/12/26 07:37:00;;;;;;;21.63;10.77;;;;;;;4.17;100.00;94343.63;10446284;28;20027;-72
2021/12/26 07:42:00;;;;;;;24.25;10.77;;;;;;;4.25;100.00;94346.69;10479341;28;20040;-74
2021/12/26 07:47:01;;;;;;;22.35;11.93;;;;;;;4.17;100.00;94328.50;10467605;28;20028;-77
2021/12/26 07:52:10;;;;;;;18.95;8.95;;;;;;;4.37;100.00;94351.13;10456143;28;20033;-79
2021/12/26 07:57:11;;;;;;;19.67;9.32;;;;;;;4.50;100.00;94329.50;10484410;28;20024;-76
2021/12/26 08:02:18;;;;;;;16.15;8.20;;;;;;;4.71;100.00;94322.59;10472500;28;20024;-73
2021/12/26 08:07:18;;;;;;;20.67;9.77;;;;;;;5.03;100.00;94313.13;10488320;28;20163;-76
2021/12/26 08:12:19;;;;;;;15.73;8.23;;;;;;;5.09;100.00;94346.75;10467630;28;20033;-72
2021/12/26 08:17:19;;;;;;;17.58;8.80;;;;;;;5.39;100.00;94316.19;10431065;28;20550;-79
2021/12/26 08:22:20;;;;;;;13.35;6.75;;;;;;;5.64;100.00;94307.66;10430285;28;20033;-76
2021/12/26 08:27:21;;;;;;;16.65;6.35;;;;;;;5.92;100.00;94309.22;10429130;28;20375;-70
2021/12/26 08:32:21;;;;;;;11.23;6.43;;;;;;;6.30;100.00;94298.59;10470816;28;20123;-74
2021/12/26 08:37:22;;;;;;;12.00;5.75;;;;;;;6.62;100.00;94295.03;10470104;28;20024;-76
2021/12/26 08:42:23;;;;;;;12.02;7.43;;;;;;;6.80;100.00;94313.28;10471077;28;20043;-71
2021/12/26 08:47:23;;;;;;;18.77;8.32;;;;;;;6.66;100.00;94296.94;10488431;28;20466;-76
2021/12/26 08:52:24;;;;;;;16.35;7.93;;;;;;;6.67;100.00;94303.09;10428785;28;20024;-73
2021/12/26 08:57:24;;;;;;;15.57;7.13;;;;;;;6.89;100.00;94307.47;10444891;28;20036;-69
2021/12/26 09:02:25;;;;;;;12.45;6.93;;;;;;;6.96;100.00;94316.84;10444710;28;20033;-72
2021/12/26 09:07:28;;;;;;;10.70;6.43;;;;;;;7.13;100.00;94311.31;10443903;28;20045;-72
2021/12/26 09:12:29;;;;;;;16.40;7.20;;;;;;;7.10;100.00;94308.34;10473059;28;20036;-70
2021/12/26 09:17:29;;;;;;;18.10;8.20;;;;;;;7.26;100.00;94266.44;10427945;28;20024;-74
2021/12/26 09:22:30;;;;;;;17.38;8.00;;;;;;;7.17;100.00;94293.69;10435837;28;20025;-70
2021/12/26 09:27:30;;;;;;;13.65;7.85;;;;;;;7.25;100.00;94291.56;10452019;28;20100;-74
2021/12/26 09:32:31;;;;;;;15.57;6.70;;;;;;;7.23;100.00;94296.34;10452429;28;20123;-75
2021/12/26 09:37:31;;;;;;;12.55;7.05;;;;;;;7.31;100.00;94309.22;10441390;28;20086;-70
2021/12/26 09:42:33;;;;;;;11.60;6.07;;;;;;;7.55;100.00;94312.25;10460335;28;20466;-77
2021/12/26 09:47:34;;;;;;;14.82;6.47;;;;;;;7.67;100.00;94311.97;10390841;23;20467;-71
2021/12/26 09:52:35;;;;;;;17.90;6.45;;;;;;;7.80;100.00;94291.94;10386678;28;20037;-70
2021/12/26 09:57:35;;;;;;;12.77;7.00;;;;;;;7.77;100.00;94284.44;10402278;28;20077;-71
2021/12/26 10:02:36;;;;;;;12.68;6.93;;;;;;;7.73;100.00;94299.41;10402495;28;20030;-75
2021/12/26 10:07:36;;;;;;;13.40;7.07;;;;;;;7.91;100.00;94314.97;10383382;28;20148;-69
2021/12/26 10:12:41;;;;;;;13.80;6.63;;;;;;;7.92;100.00;94310.41;10401701;28;20071;-70
2021/12/26 10:17:41;;;;;;;12.63;6.25;;;;;;;8.06;100.00;94297.31;10366625;28;20033;-73
2021/12/26 10:22:42;;;;;;;18.13;6.13;;;;;;;8.07;100.00;94296.25;10383741;28;20041;-72
2021/12/26 10:27:45;;;;;;;10.00;5.88;;;;;;;7.97;100.00;94315.78;10403976;28;20037;-72
2021/12/26 10:32:46;;;;;;;9.07;5.18;;;;;;;8.32;100.00;94309.59;10361407;28;20097;-78
2021/12/26 10:37:51;;;;;;;7.80;4.80;;;;;;;8.26;100.00;94310.69;10364629;28;20087;-74
2021/12/26 10:42:59;;;;;;;12.23;5.78;;;;;;;8.50;100.00;94328.91;10383244;28;20098;-73
2021/12/26 10:48:03;;;;;;;12.32;4.93;;;;;;;8.53;100.00;94299.69;10344637;28;20038;-75
2021/12/26 10:53:06;;;;;;;8.55;5.72;;;;;;;9.03;100.00;94277.59;10359396;28;20041;-78
2021/12/26 10:58:12;;;;;;;15.23;5.68;;;;;;;9.67;100.00;94291.19;10358104;28;20025;-70
2021/12/26 11:03:21;;;;;;;12.38;6.10;;;;;;;9.94;100.00;94277.31;10358252;28;20021;-70
2021/12/26 11:08:36;;;;;;;13.43;4.88;;;;;;;10.41;100.00;94280.47;10366146;28;20080;-72
2021/12/26 11:13:36;;;;;;;7.75;5.00;;;;;;;10.63;100.00;94297.97;10382611;28;20100;-76
2021/12/26 11:18:37;;;;;;;6.78;5.10;;;;;;;10.40;100.00;94301.13;10380938;28;20283;-70
2021/12/26 11:23:40;;;;;;;12.88;5.45;;;;;;;10.23;100.00;94306.91;10400481;28;20468;-81
2021/12/26 11:28:44;;;;;;;10.63;5.88;;;;;;;10.22;100.00;94296.44;10366542;28;20117;-74
2021/12/26 11:33:46;;;;;;;13.57;4.85;;;;;;;10.19;100.00;94294.31;10380958;28;20124;-71
2021/12/26 11:38:47;;;;;;;7.95;5.65;;;;;;;10.50;100.00;94292.19;10358185;28;20034;-71
2021/12/26 11:44:19;;;;;;;13.63;6.25;;;;;;;9.74;100.00;94292.50;10359918;28;20096;-74
2021/12/26 11:50:03;;;;;;;12.40;5.63;;;;;;;10.17;100.00;94286.56;10358413;28;20032;-78
2021/12/26 11:55:28;;;;;;;18.00;7.03;;;;;;;10.13;100.00;94269.41;10357687;28;20365;-79
2021/12/26 12:00:37;;;;;;;11.02;5.68;;;;;;;10.07;100.00;94283.94;10360684;28;20045;-84
2021/12/26 12:05:44;;;;;;;18.27;6.95;;;;;;;10.39;100.00;94271.88;10406159;28;20036;-81
2021/12/26 12:11:08;;;;;;;15.00;6.90;;;;;;;10.04;100.00;94277.22;10399298;28;20281;-78
2021/12/26 12:16:11;;;;;;;18.95;7.45;;;;;;;10.10;100.00;94243.09;10383676;28;20029;-77
2021/12/26 12:21:34;;;;;;;13.27;6.43;;;;;;;9.97;100.00;94220.38;10381441;28;20034;-77
2021/12/26 12:26:48;;;;;;;15.38;6.97;;;;;;;10.16;100.00;94254.59;10380173;28;20040;-76
2021/12/26 12:32:08;;;;;;;28.20;7.35;;;;;;;10.37;100.00;94257.94;10382056;28;20458;-78
2021/12/26 12:37:09;;;;;;;17.90;8.27;;;;;;;10.41;100.00;94229.44;10406039;28;20075;-79
2021/12/26 12:42:16;;;;;;;20.73;7.28;;;;;;;10.41;100.00;94242.84;10390521;28;20416;-76
2021/12/26 12:47:24;;;;;;;19.47;8.00;;;;;;;10.55;100.00;94233.03;10371848;28;20392;-75
2021/12/26 12:52:59;;;;;;;18.10;6.33;;;;;;;10.44;100.00;94223.47;10393258;28;20049;-79
2021/12/26 12:58:26;;;;;;;19.05;7.03;;;;;;;10.30;100.00;94246.66;10375358;28;20040;-73
2021/12/26 13:03:45;;;;;;;21.05;8.35;;;;;;;10.33;100.00;94249.59;10406274;28;20021;-76
2021/12/26 13:08:48;;;;;;;22.90;7.72;;;;;;;10.41;100.00;94259.78;10390584;28;20030;-82
2021/12/26 13:13:50;;;;;;;22.15;8.30;;;;;;;10.32;100.00;94242.63;10397507;28;20850;-78
2021/12/26 13:18:51;;;;;;;16.00;8.85;;;;;;;10.33;100.00;94230.00;10367417;28;20024;-75
2021/12/26 13:23:51;;;;;;;17.50;8.40;;;;;;;10.08;100.00;94253.31;10349179;28;20032;-77
2021/12/26 13:28:52;;;;;;;22.88;9.90;;;;;;;9.90;100.00;94238.69;10348818;28;20028;-78
2021/12/26 13:34:00;;;;;;;24.92;11.40;;;;;;;9.90;100.00;94252.91;10389013;28;20025;-81
2021/12/26 13:39:06;;;;;;;27.63;12.10;;;;;;;9.87;100.00;94240.06;10373964;28;20561;-81
2021/12/26 13:44:06;;;;;;;25.35;12.45;;;;;;;9.77;100.00;94253.56;10371545;28;20119;-80
2021/12/26 13:49:09;;;;;;;24.15;12.88;;;;;;;9.73;100.00;94252.53;10387680;28;20474;-76
2021/12/26 13:54:16;;;;;;;39.55;15.15;;;;;;;9.66;100.00;94266.25;10396556;28;20043;-78
2021/12/26 13:59:29;;;;;;;41.42;16.67;;;;;;;9.43;100.00;94248.94;10414681;28;20091;-79
2021/12/26 14:04:48;;;;;;;39.00;17.02;;;;;;;9.12;100.00;94267.09;10405034;28;20033;-84
2021/12/26 14:09:52;;;;;;;35.85;16.65;;;;;;;9.15;100.00;94267.31;10403634;28;20648;-80
2021/12/26 14:14:53;;;;;;;40.63;16.77;;;;;;;8.95;100.00;94252.16;10339972;28;20026;-75
2021/12/26 14:19:55;;;;;;;38.70;15.63;;;;;;;8.93;100.00;94248.94;10363313;28;20420;-80
2021/12/26 14:24:56;;;;;;;30.33;13.90;;;;;;;8.72;100.00;94272.31;10343692;28;20472;-80
2021/12/26 14:30:01;;;;;;;32.95;14.88;;;;;;;8.76;100.00;94249.25;10367531;28;20120;-75
2021/12/26 14:35:03;;;;;;;30.27;14.25;;;;;;;8.50;100.00;94269.97;10404581;28;20033;-78
2021/12/26 14:40:29;;;;;;;30.60;15.57;;;;;;;8.42;100.00;94262.47;10314442;28;20064;-81
2021/12/26 14:45:30;;;;;;;31.80;15.88;;;;;;;7.97;100.00;94247.00;10304026;28;20057;-76
2021/12/26 14:50:31;;;;;;;34.70;16.05;;;;;;;8.07;100.00;94269.47;10376334;28;20025;-81
2021/12/26 14:55:34;;;;;;;29.52;13.60;;;;;;;8.08;100.00;94244.28;10383307;28;20032;-75
2021/12/26 15:00:35;;;;;;;31.38;15.68;;;;;;;7.93;100.00;94258.50;10366375;28;20510;-73
2021/12/26 15:05:36;;;;;;;27.10;13.93;;;;;;;7.85;100.00;94257.94;10384624;28;20029;-77
2021/12/26 15:10:39;;;;;;;24.17;11.93;;;;;;;7.98;100.00;94248.59;10386095;28;20033;-76
2021/12/26 15:15:44;;;;;;;24.65;12.50;;;;;;;7.94;100.00;94268.94;10379341;28;20030;-77
2021/12/26 15:20:50;;;;;;;23.35;12.25;;;;;;;8.00;100.00;94259.81;10388722;28;20036;-77
2021/12/26 15:25:55;;;;;;;32.88;12.38;;;;;;;8.04;100.00;94271.59;10385482;28;20039;-76
2021/12/26 15:31:10;;;;;;;28.08;11.90;;;;;;;7.97;100.00;94259.56;10384387;28;20029;-84
2021/12/26 15:36:48;;;;;;;20.55;11.50;;;;;;;8.00;100.00;94267.84;10401824;28;20578;-80
2021/12/26 15:41:54;;;;;;;27.60;10.95;;;;;;;7.78;100.00;94260.09;10372628;28;20155;-71
2021/12/26 15:46:55;;;;;;;23.73;12.25;;;;;;;7.73;100.00;94264.63;10385287;28;20068;-80
2021/12/26 15:51:56;;;;;;;25.73;13.02;;;;;;;7.77;100.00;94274.56;10401536;28;20033;-78
2021/12/26 15:56:56;;;;;;;25.23;13.15;;;;;;;7.74;100.00;94282.31;10353078;28;20025;-74
2021/12/26 16:02:00;;;;;;;25.02;11.82;;;;;;;7.57;100.00;94287.91;10387703;28;20045;-80
2021/12/26 16:07:07;;;;;;;26.05;14.32;;;;;;;7.64;100.00;94275.06;10386207;28;20088;-70
2021/12/26 16:12:08;;;;;;;36.80;15.70;;;;;;;7.35;100.00;94291.59;10393367;28;20051;-79
2021/12/26 16:17:08;;;;;;;36.55;14.18;;;;;;;7.45;100.00;94301.50;10391313;28;20034;-78
2021/12/26 16:22:09;;;;;;;30.02;12.75;;;;;;;7.39;100.00;94276.63;10396120;28;20043;-77
2021/12/26 16:27:10;;;;;;;25.05;12.77;;;;;;;7.46;100.00;94292.41;10420870;28;20408;-78
2021/12/26 16:32:10;;;;;;;27.27;11.20;;;;;;;7.45;100.00;94282.78;10401452;28;20090;-75
2021/12/26 16:37:11;;;;;;;22.40;12.13;;;;;;;7.39;100.00;94308.72;10396709;28;20034;-73
2021/12/26 16:42:11;;;;;;;19.97;11.30;;;;;;;7.35;100.00;94284.38;10381731;28;20026;-77
2021/12/26 16:47:14;;;;;;;23.40;11.25;;;;;;;7.43;100.00;94285.72;10369776;28;20301;-74
2021/12/26 16:52:17;;;;;;;28.77;12.45;;;;;;;7.40;100.00;94313.00;10354668;28;20042;-75
2021/12/26 16:57:18;;;;;;;23.65;12.45;;;;;;;7.42;100.00;94286.78;10367894;28;20033;-80
2021/12/26 17:02:18;;;;;;;20.80;10.63;;;;;;;7.35;100.00;94302.28;10390638;28;20495;-80
2021/12/26 17:07:19;;;;;;;30.38;12.82;;;;;;;7.37;100.00;94308.19;10408025;28;20030;-80
2021/12/26 17:12:19;;;;;;;19.67;11.15;;;;;;;7.39;100.00;94295.34;10388803;28;20125;-79
2021/12/26 17:17:20;;;;;;;30.65;11.65;;;;;;;7.16;100.00;94323.34;10406403;28;20029;-84
2021/12/26 17:22:20;;;;;;;24.77;10.73;;;;;;;7.19;100.00;94331.63;10376144;28;20057;-73
2021/12/26 17:27:26;;;;;;;20.95;10.02;;;;;;;7.24;100.00;94296.13;10408132;28;20407;-77
2021/12/26 17:32:27;;;;;;;20.35;10.32;;;;;;;7.30;100.00;94311.09;10357714;28;20412;-76
2021/12/26 17:37:27;;;;;;;21.75;10.52;;;;;;;7.27;100.00;94327.66;10363150;28;20026;-74
2021/12/26 17:42:28;;;;;;;21.50;10.02;;;;;;;7.26;100.00;94320.69;10395313;28;20069;-75
2021/12/26 17:47:28;;;;;;;24.15;12.02;;;;;;;6.93;100.00;94297.84;10386283;28;20143;-74
2021/12/26 17:52:28;;;;;;;28.55;11.93;;;;;;;6.79;100.00;94338.38;10387804;28;20031;-76
2021/12/26 17:57:34;;;;;;;19.63;9.52;;;;;;;6.82;100.00;94294.34;10405696;28;20468;-74
2021/12/26 18:02:34;;;;;;;21.95;9.52;;;;;;;6.94;100.00;94342.22;10386148;28;20467;-76
2021/12/26 18:07:35;;;;;;;18.48;10.23;;;;;;;7.02;100.00;94315.00;10354305;28;20022;-78
2021/12/26 18:12:37;;;;;;;20.42;9.70;;;;;;;7.06;100.00;94334.81;10349915;28;20487;-82
2021/12/26 18:17:38;;;;;;;20.60;10.40;;;;;;;7.16;100.00;94332.16;10362359;28;20041;-78
2021/12/26 18:22:39;;;;;;;22.60;10.32;;;;;;;6.93;100.00;94312.00;10361422;28;20037;-79
2021/12/26 18:27:41;;;;;;;25.63;11.40;;;;;;;7.04;100.00;94320.88;10362706;28;20065;-77
2021/12/26 18:32:44;;;;;;;18.52;9.63;;;;;;;6.97;100.00;94331.81;10387494;28;20034;-71
2021/12/26 18:37:45;;;;;;;18.38;10.43;;;;;;;7.03;100.00;94316.59;10386620;28;20029;-75
2021/12/26 18:42:46;;;;;;;23.35;9.45;;;;;;;6.83;100.00;94325.31;10403122;28;20168;-74
2021/12/26 18:47:47;;;;;;;19.83;9.57;;;;;;;6.81;100.00;94311.44;10384050;28;20049;-76
2021/12/26 18:52:49;;;;;;;15.07;8.35;;;;;;;6.65;100.00;94342.59;10385769;28;20414;-77
2021/12/26 18:57:50;;;;;;;26.42;9.65;;;;;;;6.76;100.00;94290.84;10368449;28;20025;-74
2021/12/26 19:02:52;;;;;;;17.77;8.23;;;;;;;6.62;100.00;94324.41;10386913;28;20057;-78
2021/12/26 19:07:53;;;;;;;17.75;9.40;;;;;;;6.87;100.00;94325.63;10384728;28;20057;-75
2021/12/26 19:12:54;;;;;;;23.10;9.88;;;;;;;7.02;100.00;94317.69;10321282;28;20183;-79
2021/12/26 19:17:55;;;;;;;17.15;7.68;;;;;;;7.11;100.00;94302.72;10320848;28;20029;-80
2021/12/26 19:22:57;;;;;;;25.92;10.55;;;;;;;6.83;100.00;94322.66;10303813;28;20030;-74
2021/12/26 19:27:59;;;;;;;20.20;10.85;;;;;;;6.77;100.00;94323.72;10332129;28;20419;-81
2021/12/26 19:33:01;;;;;;;22.58;10.40;;;;;;;6.67;100.00;94301.22;10364155;28;20480;-74
2021/12/26 19:38:04;;;;;;;26.60;11.40;;;;;;;6.59;100.00;94311.59;10400340;28;20029;-73
2021/12/26 19:43:12;;;;;;;27.95;13.07;;;;;;;6.60;100.00;94318.50;10404665;28;20172;-74
2021/12/26 19:48:15;;;;;;;21.20;10.70;;;;;;;6.66;100.00;94309.50;10391334;28;20548;-70
2021/12/26 19:53:17;;;;;;;25.13;11.57;;;;;;;6.08;100.00;94336.03;10412913;28;20036;-80
2021/12/26 19:58:18;;;;;;;27.60;11.45;;;;;;;6.14;100.00;94341.16;10416317;28;20024;-76
2021/12/26 20:03:20;;;;;;;26.65;12.50;;;;;;;6.25;100.00;94338.56;10389902;28;20040;-74
2021/12/26 20:08:20;;;;;;;38.83;12.55;;;;;;;5.71;100.00;94350.09;10390881;28;20420;-74
2021/12/26 20:13:29;;;;;;;22.95;12.35;;;;;;;5.94;100.00;94340.97;10368619;28;20028;-77
2021/12/26 20:18:29;;;;;;;24.45;13.30;;;;;;;6.02;100.00;94334.41;10376137;28;20049;-80
2021/12/26 20:23:30;;;;;;;25.80;13.05;;;;;;;5.64;100.00;94348.44;10410124;28;20535;-81
2021/12/26 20:28:31;;;;;;;26.45;13.73;;;;;;;5.81;100.00;94347.53;10373624;28;20033;-74
2021/12/26 20:33:33;;;;;;;26.98;13.98;;;;;;;5.78;100.00;94334.69;10372504;28;20028;-73
2021/12/26 20:38:37;;;;;;;31.60;14.45;;;;;;;5.74;100.00;94339.72;10364177;28;20017;-71
2021/12/26 20:43:37;;;;;;;32.20;14.05;;;;;;;5.73;100.00;94347.97;10365157;28;20052;-77
2021/12/26 20:48:38;;;;;;;27.63;14.45;;;;;;;5.63;100.00;94348.69;10364830;28;20435;-71
2021/12/26 20:53:41;;;;;;;26.17;13.40;;;;;;;5.68;100.00;94354.06;10364383;28;20034;-72
2021/12/26 20:58:42;;;;;;;33.42;13.10;;;;;;;5.80;100.00;94352.06;10364327;28;20017;-73
2021/12/26 21:03:42;;;;;;;29.20;13.05;;;;;;;5.99;100.00;94365.06;10346473;28;20018;-71
2021/12/26 21:08:43;;;;;;;28.83;13.65;;;;;;;5.88;100.00;94374.00;10346434;28;20056;-73
2021/12/26 21:13:44;;;;;;;31.15;13.02;;;;;;;6.02;100.00;94369.88;10364337;28;20061;-72
2021/12/26 21:18:44;;;;;;;27.60;14.65;;;;;;;6.13;100.00;94368.91;10362228;28;20491;-76
2021/12/26 21:23:46;;;;;;;24.70;13.60;;;;;;;6.30;100.00;94357.31;10362027;28;20026;-73
2021/12/26 21:28:46;;;;;;;29.33;11.95;;;;;;;6.27;100.00;94358.59;10365722;28;20021;-75
2021/12/26 21:33:47;;;;;;;25.20;12.52;;;;;;;6.32;100.00;94364.00;10386061;28;20025;-75
2021/12/26 21:38:47;;;;;;;27.75;13.38;;;;;;;6.32;100.00;94369.34;10386069;28;20103;-76
2021/12/26 21:43:48;;;;;;;23.65;13.43;;;;;;;6.39;100.00;94342.44;10385522;28;20427;-71
2021/12/26 21:48:48;;;;;;;28.30;13.38;;;;;;;6.33;100.00;94351.44;10387633;28;20480;-72
2021/12/26 21:53:48;;;;;;;26.05;13.73;;;;;;;6.35;100.00;94345.84;10362131;28;20548;-78
2021/12/26 21:58:50;;;;;;;24.70;13.52;;;;;;;6.34;100.00;94355.72;10344424;28;20018;-72
2021/12/26 22:03:50;;;;;;;29.83;14.23;;;;;;;6.24;100.00;94350.31;10360756;28;20422;-75
2021/12/26 22:08:52;;;;;;;30.92;14.40;;;;;;;5.98;100.00;94356.22;10361947;28;20034;-76
2021/12/26 22:13:53;;;;;;;31.00;14.98;;;;;;;6.09;100.00;94357.13;10344582;28;20040;-71
2021/12/26 22:18:53;;;;;;;26.90;15.02;;;;;;;5.99;100.00;94352.50;10360004;28;20381;-75
2021/12/26 22:23:54;;;;;;;28.95;15.48;;;;;;;6.16;100.00;94338.25;10343636;28;20029;-72
2021/12/26 22:28:55;;;;;;;37.97;16.08;;;;;;;6.17;100.00;94342.53;10343493;28;20030;-73
2021/12/26 22:33:55;;;;;;;30.45;15.20;;;;;;;5.91;100.00;94344.94;10398064;28;20029;-76
2021/12/26 22:38:56;;;;;;;25.13;14.68;;;;;;;6.09;100.00;94332.31;10403328;28;20108;-76
2021/12/26 22:43:56;;;;;;;34.08;17.27;;;;;;;6.10;100.00;94329.41;10385469;28;20129;-75
2021/12/26 22:48:57;;;;;;;31.63;15.15;;;;;;;6.01;100.00;94330.13;10384856;28;20029;-74
2021/12/26 22:53:58;;;;;;;31.92;15.45;;;;;;;5.99;100.00;94309.03;10400744;28;20025;-75
2021/12/26 22:58:59;;;;;;;29.05;14.73;;;;;;;5.79;100.00;94320.28;10402439;28;20552;-76
2021/12/26 23:04:00;;;;;;;36.60;15.55;;;;;;;5.98;100.00;94318.09;10401760;28;20033;-74
2021/12/26 23:09:02;;;;;;;35.25;14.43;;;;;;;5.69;100.00;94325.53;10402293;28;20040;-78
2021/12/26 23:14:02;;;;;;;31.73;14.32;;;;;;;5.72;100.00;94309.84;10383549;28;20099;-74